Data for 08/17/2015

Time Sea-Level Adjusted Pressure Absolute Pressure Temperature Relative Humidity Dew Point   
(mb) (inHg) (mb) (inHg) (C) (F) (%) (C) (F)
00:05 1022 30.18 852 25.16 13.9 57.1 60 6.3 43.3
00:10 1022 30.18 852 25.16 13.9 57 60 6.2 43.2
00:15 1022 30.18 852 25.16 13.9 57.1 59 6.2 43.1
00:20 1022 30.18 852 25.16 13.9 57.1 59 6.2 43.1
00:25 1022 30.18 851 25.13 13.9 57.1 59 6.1 42.9
00:30 1022 30.18 851 25.13 13.9 57 59 6.1 42.9
00:35 1022 30.18 851 25.13 13.9 57 59 6 42.8
00:40 1022 30.18 851 25.13 13.8 56.9 59 6.1 43
00:45 1022 30.18 851 25.13 13.8 56.8 59 6 42.8
00:50 1022 30.18 851 25.13 13.7 56.7 60 6.1 42.9
00:55 1022 30.18 851 25.13 13.7 56.6 60 6.1 42.9
01:00 1022 30.18 851 25.13 13.6 56.5 60 6 42.9
01:05 1022 30.18 851 25.13 13.6 56.4 60 6.1 43
01:10 1022 30.18 851 25.13 13.5 56.3 61 6.1 43
01:15 1022 30.18 851 25.13 13.5 56.2 61 6.1 42.9
01:20 1022 30.18 851 25.13 13.4 56.1 61 6.1 43
01:25 1022 30.18 851 25.13 13.3 55.9 61 6.1 42.9
01:30 1022 30.18 851 25.13 13.3 55.9 61 6.1 43
01:35 1022 30.18 851 25.13 13.2 55.8 62 6.1 43
01:40 1022 30.18 851 25.13 13.2 55.8 62 6.1 43
01:45 1022 30.18 851 25.13 13.2 55.7 62 6.1 43
01:50 1022 30.18 851 25.13 13.1 55.7 62 6.1 43
01:55 1022 30.18 851 25.13 13.1 55.5 62 6.1 43
02:00 1022 30.18 851 25.13 13 55.5 62 6 42.8
02:05 1022 30.18 851 25.13 13 55.4 62 6 42.9
02:10 1021 30.15 851 25.13 12.9 55.2 63 6.1 42.9
02:15 1021 30.15 851 25.13 12.8 55.1 63 6.1 42.9
02:20 1021 30.15 851 25.13 12.8 55 63 6 42.8
02:25 1021 30.15 851 25.13 12.7 54.9 63 6 42.8
02:30 1022 30.18 851 25.13 12.6 54.7 64 6 42.8
02:35 1022 30.18 851 25.13 12.6 54.7 64 5.9 42.7
02:40 1022 30.18 851 25.13 12.6 54.7 64 6 42.8
02:45 1022 30.18 851 25.13 12.6 54.6 64 6 42.7
02:50 1022 30.18 851 25.13 12.6 54.6 63 5.9 42.6
02:55 1022 30.18 851 25.13 12.6 54.7 63 5.9 42.6
03:00 1022 30.18 851 25.13 12.6 54.7 63 5.9 42.5
03:05 1022 30.18 851 25.13 12.5 54.6 63 5.8 42.5
03:10 1022 30.18 851 25.13 12.5 54.5 63 5.8 42.4
03:15 1022 30.18 851 25.13 12.5 54.4 64 5.8 42.4
03:20 1021 30.15 851 25.13 12.4 54.2 64 5.7 42.3
03:25 1021 30.15 851 25.13 12.3 54.1 64 5.7 42.3
03:30 1021 30.15 851 25.13 12.3 54.2 63 5.6 42.1
03:35 1021 30.15 851 25.13 12.3 54.2 63 5.6 42.1
03:40 1021 30.15 851 25.13 12.3 54.1 64 5.7 42.2
03:45 1021 30.15 851 25.13 12.2 54 64 5.6 42.1
03:50 1021 30.15 851 25.13 12.1 53.8 64 5.6 42.1
03:55 1021 30.15 851 25.13 12.1 53.7 64 5.5 41.9
04:00 1021 30.15 851 25.13 12.1 53.7 64 5.6 42.1
04:05 1021 30.15 850 25.1 12 53.5 65 5.6 42
04:10 1021 30.15 850 25.1 11.9 53.5 65 5.5 42
04:15 1021 30.15 850 25.1 11.9 53.5 64 5.4 41.8
04:20 1021 30.15 850 25.1 12 53.5 64 5.5 41.8
04:25 1021 30.15 850 25.1 11.9 53.4 64 5.5 41.8
04:30 1021 30.15 850 25.1 11.8 53.3 65 5.4 41.8
04:35 1021 30.15 850 25.1 11.8 53.3 65 5.5 41.9
04:40 1021 30.15 850 25.1 11.7 53 65 5.5 41.8
04:45 1021 30.15 850 25.1 11.6 52.8 66 5.5 41.8
04:50 1021 30.15 850 25.1 11.4 52.6 67 5.5 41.9
04:55 1021 30.15 850 25.1 11.3 52.3 67 5.5 41.9
05:00 1021 30.15 850 25.1 11.2 52.1 67 5.3 41.6
05:05 1021 30.15 851 25.13 11.2 52.2 67 5.3 41.6
05:10 1021 30.15 851 25.13 11.2 52.2 67 5.4 41.8
05:15 1021 30.15 851 25.13 11.2 52.1 68 5.5 41.9
05:20 1021 30.15 851 25.13 11.1 52 68 5.4 41.7
05:25 1021 30.15 851 25.13 11.1 52.1 67 5.4 41.7
05:30 1021 30.15 851 25.13 11.1 51.9 68 5.4 41.8
05:35 1021 30.15 851 25.13 11 51.9 68 5.4 41.7
05:40 1021 30.15 851 25.13 11 51.7 68 5.4 41.8
05:45 1021 30.15 851 25.13 11 51.8 68 5.4 41.7
05:50 1021 30.15 851 25.13 11 51.8 68 5.3 41.6
05:55 1022 30.18 851 25.13 11 51.8 68 5.4 41.7
06:00 1022 30.18 851 25.13 10.9 51.7 68 5.4 41.7
06:05 1022 30.18 851 25.13 10.9 51.7 68 5.3 41.6
06:10 1022 30.18 851 25.13 11 51.7 68 5.4 41.8
06:15 1022 30.18 851 25.13 11 51.7 68 5.3 41.5
06:20 1022 30.18 851 25.13 11 51.8 68 5.3 41.6
06:25 1022 30.18 851 25.13 11.1 52 68 5.4 41.7
06:30 1022 30.18 851 25.13 11.1 52 68 5.5 41.8
06:35 1022 30.18 851 25.13 11.1 51.9 68 5.4 41.8
06:40 1022 30.18 851 25.13 11.1 52 68 5.5 41.9
06:45 1022 30.18 851 25.13 11.2 52.1 67 5.4 41.8
06:50 1022 30.18 851 25.13 11.3 52.3 67 5.5 41.8
06:55 1022 30.18 851 25.13 11.4 52.5 67 5.5 41.8
07:00 1022 30.18 851 25.13 11.5 52.7 66 5.4 41.8
07:05 1022 30.18 851 25.13 11.5 52.6 66 5.4 41.6
07:10 1021 30.15 851 25.13 11.6 52.8 65 5.3 41.6
07:15 1022 30.18 851 25.13 11.9 53.3 64 5.3 41.5
07:20 1022 30.18 851 25.13 12.3 54.1 63 5.4 41.7
07:25 1022 30.18 851 25.13 12.3 54.2 62 5.4 41.7
07:30 1022 30.18 851 25.13 12.4 54.3 62 5.3 41.6
07:35 1022 30.18 851 25.13 12.5 54.6 62 5.4 41.7
07:40 1022 30.18 851 25.13 12.5 54.5 62 5.5 41.9
07:45 1021 30.15 851 25.13 12.5 54.5 62 5.5 41.9
07:50 1021 30.15 851 25.13 12.6 54.6 61 5.3 41.6
07:55 1021 30.15 851 25.13 12.7 54.9 60 5.3 41.5
08:00 1021 30.15 851 25.13 12.7 54.9 60 5.3 41.5
08:05 1021 30.15 851 25.13 12.7 54.9 61 5.4 41.7
08:10 1021 30.15 851 25.13 12.8 55.1 61 5.6 42.1
08:15 1021 30.15 851 25.13 12.9 55.2 61 5.5 42
08:20 1021 30.15 851 25.13 12.9 55.1 61 5.6 42.1
08:25 1021 30.15 851 25.13 13.2 55.8 60 5.6 42
08:30 1021 30.15 851 25.13 13.4 56.1 59 5.7 42.2
08:35 1021 30.15 851 25.13 13.5 56.2 60 6 42.8
08:40 1021 30.15 851 25.13 13.9 56.9 62 6.9 44.4
08:45 1021 30.15 851 25.13 14 57.2 61 6.7 44.1
08:50 1021 30.15 851 25.13 14.1 57.3 62 7 44.6
08:55 1021 30.15 851 25.13 13.9 57 62 6.7 44.1
09:00 1021 30.15 850 25.1 14.2 57.6 60 6.7 44.1
09:05 1021 30.15 850 25.1 14.4 57.8 60 6.8 44.3
09:10 1021 30.15 850 25.1 14.6 58.4 58 6.7 44
09:15 1021 30.15 850 25.1 14.8 58.6 59 6.8 44.2
09:20 1021 30.15 851 25.13 14.9 58.8 58 6.8 44.2
09:25 1021 30.15 851 25.13 14.5 58.1 59 6.7 44
09:30 1021 30.15 851 25.13 14.7 58.4 59 6.8 44.2
09:35 1021 30.15 851 25.13 14.8 58.6 59 6.8 44.3
09:40 1021 30.15 851 25.13 14.8 58.7 60 7.1 44.8
09:45 1021 30.15 851 25.13 14.6 58.3 60 7 44.6
09:50 1021 30.15 851 25.13 14.4 57.9 62 7.2 45
09:55 1022 30.18 851 25.13 13.9 57 63 7 44.6
10:00 1022 30.18 851 25.13 14.2 57.5 60 6.7 44
10:05 1022 30.18 851 25.13 14.6 58.3 59 6.7 44.1
10:10 1022 30.18 851 25.13 14.7 58.5 59 6.8 44.2
10:15 1022 30.18 851 25.13 14.9 58.8 59 7 44.5
10:20 1022 30.18 851 25.13 14.7 58.5 60 7.2 45
10:25 1022 30.18 851 25.13 14.5 58.1 60 6.9 44.4
10:30 1022 30.18 851 25.13 14.9 58.8 59 7 44.5
10:35 1022 30.18 851 25.13 14.9 58.7 57 6.6 43.8
10:40 1021 30.15 851 25.13 15.4 59.7 56 6.7 44
10:45 1021 30.15 851 25.13 15.2 59.4 59 7.3 45.1
10:50 1021 30.15 851 25.13 15.2 59.4 56 6.6 43.9
10:55 1022 30.18 851 25.13 15.6 60.1 56 6.9 44.3
11:00 1022 30.18 851 25.13 15.2 59.3 58 7 44.6
11:05 1022 30.18 851 25.13 15.5 59.8 56 6.9 44.3
11:10 1022 30.18 851 25.13 15.4 59.8 55 6.6 43.8
11:15 1022 30.18 851 25.13 15.3 59.5 58 7.1 44.8
11:20 1021 30.15 851 25.13 15.1 59.2 57 6.9 44.4
11:25 1021 30.15 851 25.13 15.9 60.6 55 6.8 44.3
11:30 1021 30.15 851 25.13 15.9 60.6 56 7.2 44.9
11:35 1021 30.15 851 25.13 16.6 61.8 53 6.9 44.4
11:40 1021 30.15 851 25.13 16.8 62.2 54 7.5 45.5
11:45 1021 30.15 851 25.13 16.4 61.5 54 7.3 45.1
11:50 1021 30.15 851 25.13 16.5 61.7 54 7.2 45
11:55 1021 30.15 851 25.13 17 62.6 53 7.5 45.6
12:00 1021 30.15 851 25.13 17 62.6 54 7.6 45.7
12:05 1021 30.15 850 25.1 17.4 63.3 51 7.2 45
12:10 1021 30.15 851 25.13 17.8 64 51 7.5 45.4
12:15 1021 30.15 851 25.13 18.1 64.6 50 7.5 45.5
12:20 1021 30.15 851 25.13 17.7 63.8 53 8.2 46.7
12:25 1021 30.15 851 25.13 17 62.6 53 7.4 45.3
12:30 1021 30.15 851 25.13 17 62.5 53 7.5 45.4
12:35 1021 30.15 851 25.13 16.5 61.7 54 7.2 45
12:40 1021 30.15 851 25.13 17 62.6 53 7.5 45.6
12:45 1021 30.15 850 25.1 17.1 62.8 52 7.3 45.2
12:50 1021 30.15 850 25.1 16.9 62.4 53 7.2 45
12:55 1021 30.15 850 25.1 16.7 62 54 7.3 45.2
13:00 1021 30.15 850 25.1 17.1 62.8 50 6.6 43.9
13:05 1021 30.15 850 25.1 17.9 64.2 47 6.4 43.5
13:10 1021 30.15 850 25.1 17.7 63.8 50 7.2 45
13:15 1021 30.15 850 25.1 17.9 64.1 44 5.6 42.2
13:20 1021 30.15 850 25.1 18.8 65.8 43 6.1 43
13:25 1021 30.15 850 25.1 18.1 64.5 45 6.2 43.2
13:30 1021 30.15 850 25.1 18.7 65.7 42 5.8 42.4
13:35 1021 30.15 851 25.13 18.8 65.8 43 6 42.7
13:40 1021 30.15 851 25.13 18.8 65.8 44 6.5 43.7
13:45 1021 30.15 851 25.13 18.2 64.7 44 5.8 42.5
13:50 1021 30.15 851 25.13 17.9 64.1 44 5.4 41.8
13:55 1021 30.15 850 25.1 18.1 64.5 39 4.1 39.4
14:00 1021 30.15 850 25.1 19 66.2 37 4.3 39.7
14:05 1021 30.15 850 25.1 19.2 66.6 37 4.1 39.5
14:10 1021 30.15 850 25.1 19 66.3 35 3.2 37.7
14:15 1021 30.15 850 25.1 19.6 67.3 32 2.8 37
14:20 1021 30.15 850 25.1 19.8 67.7 32 2.7 36.9
14:25 1021 30.15 850 25.1 19.3 66.8 32 2.5 36.4
14:30 1021 30.15 850 25.1 19.5 67 31 1.9 35.3
14:35 1021 30.15 850 25.1 19.9 67.8 30 2.1 35.8
14:40 1021 30.15 850 25.1 20.2 68.3 30 2.3 36.1
14:45 1021 30.15 850 25.1 20.2 68.3 30 2 35.6
14:50 1021 30.15 850 25.1 20.5 68.9 29 2.1 35.8
14:55 1021 30.15 850 25.1 20.4 68.6 30 2.4 36.4
15:00 1021 30.15 850 25.1 20.2 68.3 29 2 35.5
15:05 1021 30.15 850 25.1 20.6 69.1 29 2.2 36
15:10 1021 30.15 850 25.1 20.5 68.9 27 1 33.8
15:15 1021 30.15 850 25.1 21 69.7 27 1.6 34.9
15:20 1021 30.15 850 25.1 21.3 70.3 25 0.7 33.3
15:25 1021 30.15 850 25.1 21.1 70 26 0.9 33.7
15:30 1021 30.15 850 25.1 21.1 69.9 26 1.3 34.3
15:35 1021 30.15 850 25.1 20.6 69.1 28 1.4 34.6
15:40 1021 30.15 850 25.1 20.2 68.3 28 1.3 34.3
15:45 1021 30.15 850 25.1 19.8 67.7 29 1.5 34.7
15:50 1021 30.15 850 25.1 19.6 67.3 29 1.4 34.6
15:55 1021 30.15 850 25.1 19.4 66.9 30 1.4 34.6
16:00 1021 30.15 850 25.1 19.5 67.1 29 1.3 34.4
16:05 1021 30.15 850 25.1 20.2 68.4 27 0.9 33.6
16:10 1021 30.15 850 25.1 21.2 70.2 25 0.5 32.9
16:15 1021 30.15 850 25.1 21.2 70.2 24 0.2 32.3
16:20 1021 30.15 850 25.1 20.9 69.6 25 0.2 32.3
16:25 1021 30.15 850 25.1 20.3 68.5 24 -0.7 30.8
16:30 1021 30.15 850 25.1 19.8 67.6 25 -0.5 31.2
16:35 1021 30.15 850 25.1 19.8 67.6 25 -0.5 31.1
16:40 1021 30.15 850 25.1 19.2 66.6 26 -0.7 30.7
16:45 1021 30.15 850 25.1 19.7 67.5 25 -0.8 30.5
16:50 1021 30.15 850 25.1 20.6 69.1 25 0.1 32.1
16:55 1021 30.15 850 25.1 20.8 69.4 23 -1 30.1
17:00 1021 30.15 850 25.1 20.5 68.8 23 -1.3 29.7
17:05 1021 30.15 850 25.1 20.6 69.1 23 -0.9 30.3
17:10 1021 30.15 850 25.1 21 69.8 23 -0.7 30.7
17:15 1021 30.15 850 25.1 20.9 69.7 23 -0.9 30.4
17:20 1021 30.15 850 25.1 20.6 69 24 -0.4 31.2
17:25 1021 30.15 850 25.1 19.7 67.4 26 -0.1 31.8
17:30 1021 30.15 850 25.1 19.7 67.4 24 -1.2 29.8
17:35 1021 30.15 850 25.1 19.8 67.6 25 -0.6 30.9
17:40 1021 30.15 850 25.1 18.7 65.7 41 5.2 41.4
17:45 1021 30.15 850 25.1 17.3 63.1 43 4.7 40.5
17:50 1021 30.15 850 25.1 16.5 61.6 46 4.8 40.6
17:55 1021 30.15 850 25.1 15.9 60.5 47 4.6 40.2
18:00 1021 30.15 850 25.1 15.5 59.8 47 4.4 40
18:05 1021 30.15 850 25.1 15.3 59.5 48 4.4 40
18:10 1021 30.15 850 25.1 15.3 59.5 51 5.2 41.4
18:15 1021 30.15 850 25.1 15.1 59.2 53 5.7 42.2
18:20 1021 30.15 850 25.1 14.9 58.7 53 5.5 42
18:25 1021 30.15 850 25.1 14.6 58.2 54 5.5 42
18:30 1021 30.15 850 25.1 14.3 57.8 55 5.5 41.9
18:35 1021 30.15 850 25.1 14 57.2 56 5.4 41.7
18:40 1021 30.15 850 25.1 13.8 56.9 57 5.5 41.9
18:45 1021 30.15 850 25.1 13.6 56.6 57 5.4 41.8
18:50 1021 30.15 850 25.1 13.4 56.2 58 5.5 41.9
18:55 1021 30.15 850 25.1 13.3 55.9 59 5.4 41.7
19:00 1021 30.15 850 25.1 13.2 55.8 58 5.3 41.6
19:05 1021 30.15 850 25.1 13.2 55.7 58 5.3 41.5
19:10 1021 30.15 851 25.13 13.1 55.6 59 5.4 41.8
19:15 1021 30.15 851 25.13 12.9 55.2 62 5.8 42.5
19:20 1021 30.15 851 25.13 12.7 54.8 62 5.6 42.1
19:25 1021 30.15 851 25.13 12.6 54.7 63 5.8 42.5
19:30 1021 30.15 851 25.13 12.4 54.3 64 5.8 42.5
19:35 1021 30.15 851 25.13 12.3 54.1 65 5.8 42.5
19:40 1021 30.15 851 25.13 12.1 53.7 66 5.9 42.6
19:45 1021 30.15 851 25.13 12 53.5 66 5.8 42.5
19:50 1021 30.15 851 25.13 11.9 53.4 66 5.8 42.5
19:55 1021 30.15 851 25.13 11.8 53.2 67 6 42.8
20:00 1021 30.15 851 25.13 11.7 53.1 65 5.5 41.9
20:05 1022 30.18 851 25.13 11.9 53.4 64 5.4 41.6
20:10 1022 30.18 851 25.13 11.9 53.5 64 5.3 41.5
20:15 1022 30.18 851 25.13 11.9 53.5 65 5.6 42
20:20 1022 30.18 851 25.13 11.8 53.2 66 5.6 42.1
20:25 1022 30.18 851 25.13 11.6 52.9 66 5.6 42.1
20:30 1022 30.18 851 25.13 11.5 52.8 65 5.3 41.5
20:35 1022 30.18 851 25.13 11.5 52.8 66 5.5 41.9
20:40 1022 30.18 851 25.13 11.4 52.5 67 5.6 42.1
20:45 1022 30.18 851 25.13 11.2 52.2 68 5.6 42
20:50 1022 30.18 851 25.13 11.3 52.3 68 5.6 42
20:55 1022 30.18 851 25.13 11.2 52.2 68 5.6 42.1
21:00 1022 30.18 851 25.13 11.2 52.1 68 5.5 41.9
21:05 1022 30.18 851 25.13 11.2 52.2 68 5.5 41.9
21:10 1022 30.18 851 25.13 11.3 52.3 67 5.3 41.6
21:15 1022 30.18 851 25.13 11.3 52.3 67 5.4 41.6
21:20 1022 30.18 851 25.13 11.2 52.1 67 5.4 41.7
21:25 1022 30.18 851 25.13 11 51.8 67 5.2 41.3
21:30 1022 30.18 851 25.13 10.9 51.7 67 5 41.1
21:35 1022 30.18 851 25.13 10.9 51.6 66 4.9 40.8
21:40 1022 30.18 851 25.13 10.8 51.4 67 4.9 40.8
21:45 1022 30.18 851 25.13 10.7 51.2 67 4.8 40.6
21:50 1022 30.18 851 25.13 10.6 51.2 67 4.8 40.6
21:55 1022 30.18 851 25.13 10.5 50.8 68 4.7 40.5
22:00 1022 30.18 851 25.13 10.4 50.8 67 4.6 40.3
22:05 1022 30.18 851 25.13 10.5 50.8 67 4.5 40.2
22:10 1022 30.18 851 25.13 10.4 50.8 67 4.6 40.2
22:15 1022 30.18 851 25.13 10.4 50.7 67 4.6 40.3
22:20 1022 30.18 851 25.13 10.2 50.4 68 4.5 40.1
22:25 1022 30.18 851 25.13 10.2 50.3 66 4.2 39.6
22:30 1022 30.18 851 25.13 10.2 50.3 66 4.2 39.5
22:35 1022 30.18 851 25.13 10.2 50.3 66 4.1 39.4
22:40 1021 30.15 851 25.13 10.2 50.3 66 4.2 39.5
22:45 1021 30.15 851 25.13 10.1 50.2 66 4 39.2
22:50 1022 30.18 851 25.13 10.2 50.3 64 3.8 38.8
22:55 1022 30.18 851 25.13 10.2 50.3 63 3.6 38.4
23:00 1022 30.18 851 25.13 10.2 50.3 64 3.7 38.7
23:05 1022 30.18 851 25.13 10.1 50.2 63 3.5 38.4
23:10 1022 30.18 851 25.13 10 50.1 66 4 39.2
23:15 1022 30.18 851 25.13 9.7 49.5 69 4.4 39.9
23:20 1022 30.18 851 25.13 9.4 49 70 4.2 39.6
23:25 1022 30.18 851 25.13 9.2 48.6 70 4 39.3
23:30 1022 30.18 851 25.13 9.3 48.7 69 4 39.2
23:35 1022 30.18 851 25.13 9.3 48.8 69 3.9 39.1
23:40 1022 30.18 851 25.13 9.4 48.8 69 3.9 39.1
23:45 1022 30.18 851 25.13 9.3 48.8 69 3.9 39
23:50 1022 30.18 851 25.13 9.4 48.9 68 3.8 38.8
23:55 1022 30.18 851 25.13 9.4 48.8 68 3.7 38.6
24:00 1022 30.18 851 25.13 9.3 48.7 68 3.7 38.6